createdAt,value
2023-02-12T00:00:53.469Z,98288.84
2023-02-12T00:03:24.702Z,98293.09
2023-02-12T00:05:54.268Z,98261.59
2023-02-12T00:08:28.553Z,98307.47
2023-02-12T00:10:57.812Z,98302.44
2023-02-12T00:13:27.013Z,98310.09
2023-02-12T00:15:56.534Z,98308.41
2023-02-12T00:18:27.864Z,98312.53
2023-02-12T00:21:09.072Z,98313.38
2023-02-12T00:23:40.705Z,98319.31
2023-02-12T00:26:11.138Z,98326.13
2023-02-12T00:28:45.691Z,98327.75
2023-02-12T00:31:18.594Z,98338.63
2023-02-12T00:33:50.262Z,98329.25
2023-02-12T00:36:26.976Z,98346.22
2023-02-12T00:38:57.629Z,98332.56
2023-02-12T00:41:32.820Z,98351.31
2023-02-12T00:44:02.708Z,98371.56
2023-02-12T00:46:32.117Z,98356.31
2023-02-12T00:49:14.582Z,98383.31
2023-02-12T00:51:48.764Z,98363.72
2023-02-12T00:54:18.994Z,98389.19
2023-02-12T00:56:48.342Z,98344.69
2023-02-12T00:59:23.526Z,98391.53
2023-02-12T01:01:53.198Z,98365.13
2023-02-12T01:04:24.913Z,98409.78
2023-02-12T01:06:55.090Z,98428.41
2023-02-12T01:09:24.253Z,98428.31
2023-02-12T01:11:53.486Z,98446.03
2023-02-12T01:14:23.230Z,98396.53
2023-02-12T01:16:57.868Z,98441.72
2023-02-12T01:19:29.112Z,98433.09
2023-02-12T01:22:03.519Z,98434.59
2023-02-12T01:24:32.877Z,98478.47
2023-02-12T01:27:02.645Z,98485.28
2023-02-12T01:29:32.183Z,98483.66
2023-02-12T01:32:09.264Z,98481.78
2023-02-12T01:34:40.687Z,98511.09
2023-02-12T01:37:09.930Z,98497.91
2023-02-12T01:39:39.350Z,98492.19
2023-02-12T01:42:16.161Z,98533.56
2023-02-12T01:44:46.972Z,98411.78
2023-02-12T01:47:19.382Z,98506.53
2023-02-12T01:49:51.127Z,98527.03
2023-02-12T01:52:25.538Z,98536.28
2023-02-12T01:54:57.375Z,98561.56
2023-02-12T01:57:33.991Z,98542.59
2023-02-12T02:00:06.894Z,98611.00
2023-02-12T02:02:45.090Z,98550.06
2023-02-12T02:05:26.500Z,98558.16
2023-02-12T02:10:37.057Z,98579.00
2023-02-12T02:13:19.632Z,98613.28
2023-02-12T02:15:52.710Z,98627.56
2023-02-12T02:18:33.286Z,98623.41
2023-02-12T02:21:42.772Z,98573.00
2023-02-12T02:24:37.601Z,98671.56
2023-02-12T02:27:24.798Z,98671.56
2023-02-12T02:30:34.513Z,98683.38
2023-02-12T02:33:19.779Z,98681.38
2023-02-12T02:35:55.672Z,98661.22
2023-02-12T02:38:30.095Z,98700.13
2023-02-12T02:41:06.675Z,98699.28
2023-02-12T02:43:48.975Z,98698.44
2023-02-12T02:46:25.267Z,98676.94
2023-02-12T02:49:01.344Z,98727.63
2023-02-12T02:51:39.307Z,98720.94
2023-02-12T02:54:14.710Z,98726.19
2023-02-12T02:56:47.928Z,98753.28
2023-02-12T02:59:20.811Z,98730.72
2023-02-12T03:01:56.184Z,98733.53
2023-02-12T03:04:32.801Z,98746.50
2023-02-12T03:07:19.258Z,98713.00
2023-02-12T03:09:54.633Z,98749.13
2023-02-12T03:12:33.529Z,98761.16
2023-02-12T03:15:14.531Z,98764.38
2023-02-12T03:17:50.852Z,98793.81
2023-02-12T03:20:25.917Z,98778.59
2023-02-12T03:23:04.390Z,98790.75
2023-02-12T03:25:40.441Z,98789.22
2023-02-12T03:28:15.318Z,98783.25
2023-02-12T03:30:47.592Z,98831.13
2023-02-12T03:33:24.342Z,98843.75
2023-02-12T03:36:02.996Z,98841.66
2023-02-12T03:38:39.347Z,98836.09
2023-02-12T03:41:13.709Z,98864.09
2023-02-12T03:43:52.747Z,98872.59
2023-02-12T03:46:27.824Z,98830.25
2023-02-12T03:49:06.400Z,98871.75
2023-02-12T03:51:40.306Z,98877.91
2023-02-12T03:54:20.646Z,98871.31
2023-02-12T03:56:53.771Z,98867.78
2023-02-12T03:59:24.512Z,98850.63
2023-02-12T04:01:56.480Z,98900.50
2023-02-12T04:04:26.069Z,98952.16
2023-02-12T04:06:57.725Z,98896.16
2023-02-12T04:09:34.055Z,98902.16
2023-02-12T04:12:22.374Z,98894.25
2023-02-12T04:14:56.976Z,98895.84
2023-02-12T04:17:35.968Z,98884.56
2023-02-12T04:20:18.341Z,98894.13
2023-02-12T04:23:00.982Z,98928.56
2023-02-12T04:25:45.363Z,98941.50
2023-02-12T04:28:26.253Z,98949.19
2023-02-12T04:31:01.102Z,98928.72
2023-02-12T04:33:37.385Z,98961.44
2023-02-12T04:36:19.982Z,98981.56
2023-02-12T04:38:55.600Z,98990.09
2023-02-12T04:41:26.515Z,98975.84
2023-02-12T04:43:55.744Z,99015.28
2023-02-12T04:46:24.968Z,98989.06
2023-02-12T04:49:00.778Z,98999.56
2023-02-12T04:51:29.990Z,99030.09
2023-02-12T04:54:01.176Z,99022.53
2023-02-12T04:56:30.380Z,99036.91
2023-02-12T04:58:59.604Z,99016.66
2023-02-12T05:01:31.259Z,99022.66
2023-02-12T05:04:00.356Z,99047.22
2023-02-12T05:06:30.031Z,99031.53
2023-02-12T05:09:01.235Z,99026.53
2023-02-12T05:11:30.698Z,98974.53
2023-02-12T05:14:00.012Z,99073.44
2023-02-12T05:16:29.440Z,99104.88
2023-02-12T05:18:58.957Z,99006.16
2023-02-12T05:21:33.321Z,99089.03
2023-02-12T05:24:11.230Z,99079.03
2023-02-12T05:26:40.498Z,99111.13
2023-02-12T05:29:09.992Z,99118.91
2023-02-12T05:31:39.451Z,99134.13
2023-02-12T05:34:11.732Z,99055.09
2023-02-12T05:36:43.238Z,99127.44
2023-02-12T05:39:15.536Z,99116.56
2023-02-12T05:41:44.824Z,99146.09
2023-02-12T05:44:14.778Z,99165.13
2023-02-12T05:46:50.737Z,99116.44
2023-02-12T05:49:20.268Z,99082.13
2023-02-12T05:51:49.850Z,99161.19
2023-02-12T05:54:32.327Z,99166.59
2023-02-12T05:57:01.696Z,99105.91
2023-02-12T05:59:31.832Z,99090.28
2023-02-12T06:02:01.070Z,99168.75
2023-02-12T06:04:31.214Z,99177.66
2023-02-12T06:07:02.509Z,99144.44
2023-02-12T06:09:34.510Z,99217.34
2023-02-12T06:12:08.867Z,99202.41
2023-02-12T06:14:38.066Z,99215.72
2023-02-12T06:17:08.390Z,99205.34
2023-02-12T06:19:43.758Z,99231.03
2023-02-12T06:22:13.487Z,99195.44
2023-02-12T06:24:44.654Z,99258.72
2023-02-12T06:27:18.905Z,99257.13
2023-02-12T06:29:48.271Z,99254.06
2023-02-12T06:32:17.541Z,99216.72
2023-02-12T06:34:51.859Z,99269.59
2023-02-12T06:37:21.148Z,99292.16
2023-02-12T06:39:52.293Z,99299.84
2023-02-12T06:42:21.958Z,99289.81
2023-02-12T06:44:52.991Z,99241.84
2023-02-12T06:47:22.491Z,99293.88
2023-02-12T06:49:51.648Z,99319.91
2023-02-12T06:52:21.252Z,99331.88
2023-02-12T06:54:52.495Z,99315.53
2023-02-12T06:57:26.747Z,99302.06
2023-02-12T06:59:56.283Z,99330.16
2023-02-12T07:02:25.628Z,99308.59
2023-02-12T07:04:54.937Z,99347.28
2023-02-12T07:07:24.150Z,99257.16
2023-02-12T07:09:55.216Z,99362.56
2023-02-12T07:12:24.537Z,99336.25
2023-02-12T07:14:53.722Z,99359.84
2023-02-12T07:17:22.845Z,99338.78
2023-02-12T07:19:57.294Z,99383.88
2023-02-12T07:22:26.568Z,99383.69
2023-02-12T07:24:57.722Z,99323.41
2023-02-12T07:27:27.272Z,99364.47
2023-02-12T07:29:56.303Z,99369.69
2023-02-12T07:32:25.671Z,99384.19
2023-02-12T07:34:55.220Z,99399.47
2023-02-12T07:37:24.443Z,99411.13
2023-02-12T07:39:53.669Z,99394.66
2023-02-12T07:42:24.838Z,99396.19
2023-02-12T07:44:59.962Z,99449.31
2023-02-12T07:47:29.302Z,99431.09
2023-02-12T07:49:58.500Z,99411.84
2023-02-12T07:52:27.728Z,99429.09
2023-02-12T07:55:02.425Z,99404.75
2023-02-12T07:57:36.826Z,99402.88
2023-02-12T08:00:07.658Z,99411.06
2023-02-12T08:02:41.616Z,99432.69
2023-02-12T08:05:10.864Z,99455.50
2023-02-12T08:07:40.268Z,99476.38
2023-02-12T08:10:10.490Z,99479.56
2023-02-12T08:12:41.583Z,99488.47
2023-02-12T08:15:11.777Z,99466.03
2023-02-12T08:17:45.969Z,99513.19
2023-02-12T08:22:50.755Z,99530.03
2023-02-12T08:25:19.861Z,99505.19
2023-02-12T08:27:56.207Z,99444.38
2023-02-12T08:30:25.393Z,99532.81
2023-02-12T08:32:54.510Z,99419.47
2023-02-12T08:35:29.213Z,99435.00
2023-02-12T08:37:58.306Z,99533.47
2023-02-12T08:40:27.799Z,99562.34
2023-02-12T08:42:59.082Z,99552.97
2023-02-12T08:45:28.653Z,99572.19
2023-02-12T08:47:57.918Z,99494.13
2023-02-12T08:50:27.360Z,99484.75
2023-02-12T08:52:56.694Z,99541.56
2023-02-12T08:55:25.894Z,99510.81
2023-02-12T08:57:57.889Z,99520.06
2023-02-12T09:00:29.547Z,99586.06
2023-02-12T09:03:05.337Z,99539.88
2023-02-12T09:05:34.669Z,99571.50
2023-02-12T09:08:03.849Z,99568.44
2023-02-12T09:10:33.883Z,99586.91
2023-02-12T09:13:03.124Z,99559.56
2023-02-12T09:15:37.954Z,99608.47
2023-02-12T09:18:07.457Z,99581.63
2023-02-12T09:20:40.133Z,99543.03
2023-02-12T09:23:09.807Z,99597.75
2023-02-12T09:25:42.262Z,99584.78
2023-02-12T09:28:16.829Z,99554.06
2023-02-12T09:30:48.639Z,99580.31
2023-02-12T09:33:17.620Z,99597.41
2023-02-12T09:35:46.674Z,99607.25
2023-02-12T09:38:16.241Z,99588.13
2023-02-12T09:40:55.155Z,99571.81
2023-02-12T09:43:36.483Z,99595.19
2023-02-12T09:46:15.913Z,99616.47
2023-02-12T09:48:56.259Z,99614.16
2023-02-12T09:51:26.763Z,99618.41
2023-02-12T09:54:04.699Z,99623.91
2023-02-12T09:56:36.592Z,99606.72
2023-02-12T09:59:11.417Z,99603.81
2023-02-12T10:01:42.705Z,99619.56
2023-02-12T10:04:14.376Z,99577.44
2023-02-12T10:06:50.413Z,99642.84
2023-02-12T10:09:44.879Z,99635.28
2023-02-12T10:12:25.224Z,99620.22
2023-02-12T10:15:04.974Z,99614.81
2023-02-12T10:17:41.832Z,99624.53
2023-02-12T10:20:51.315Z,99642.16
2023-02-12T10:23:56.852Z,99658.69
2023-02-12T10:26:32.530Z,99673.53
2023-02-12T10:29:12.970Z,99625.34
2023-02-12T10:31:48.607Z,99697.38
2023-02-12T10:34:23.163Z,99669.19
2023-02-12T10:36:55.188Z,99664.13
2023-02-12T10:39:28.016Z,99693.47
2023-02-12T10:42:01.702Z,99629.75
2023-02-12T10:44:31.433Z,99677.13
2023-02-12T10:47:00.654Z,99662.63
2023-02-12T10:49:34.404Z,99703.00
2023-02-12T10:52:12.650Z,99659.00
2023-02-12T10:54:44.957Z,99710.69
2023-02-12T10:57:19.082Z,99673.97
2023-02-12T10:59:50.685Z,99661.13
2023-02-12T11:02:28.657Z,99675.44
2023-02-12T11:05:01.731Z,99720.41
2023-02-12T11:07:48.656Z,99658.47
2023-02-12T11:10:28.910Z,99672.38
2023-02-12T11:12:58.279Z,99731.41
2023-02-12T11:15:30.953Z,99727.47
2023-02-12T11:18:05.399Z,99686.66
2023-02-12T11:20:46.109Z,99754.28
2023-02-12T11:23:32.911Z,99698.13
2023-02-12T11:26:08.854Z,99712.31
2023-02-12T11:28:39.341Z,99702.28
2023-02-12T11:31:24.006Z,99729.16
2023-02-12T11:34:10.834Z,99682.69
2023-02-12T11:36:50.638Z,99757.31
2023-02-12T11:39:29.872Z,99751.94
2023-02-12T11:42:05.970Z,99766.25
2023-02-12T11:44:38.906Z,99752.06
2023-02-12T11:47:21.770Z,99770.06
2023-02-12T11:49:54.571Z,99742.88
2023-02-12T11:52:35.487Z,99779.75
2023-02-12T11:55:10.215Z,99753.72
2023-02-12T11:57:46.830Z,99754.28
2023-02-12T12:00:19.191Z,99802.66
2023-02-12T12:03:06.797Z,99802.09
2023-02-12T12:05:40.823Z,99766.00
2023-02-12T12:08:18.429Z,99827.47
2023-02-12T12:10:52.241Z,99759.91
2023-02-12T12:13:34.498Z,99805.69
2023-02-12T12:16:25.980Z,99800.53
2023-02-12T12:19:14.390Z,99834.03
2023-02-12T12:21:54.896Z,99793.41
2023-02-12T12:24:33.026Z,99801.34
2023-02-12T12:27:23.983Z,99827.88
2023-02-12T12:30:06.444Z,99822.59
2023-02-12T12:32:43.563Z,99853.63
2023-02-12T12:35:17.601Z,99823.06
2023-02-12T12:37:56.569Z,99839.88
2023-02-12T12:41:01.167Z,99877.97
2023-02-12T12:43:43.021Z,99838.81
2023-02-12T12:54:07.992Z,99914.44
2023-02-12T12:56:59.980Z,99882.44
2023-02-12T12:59:55.226Z,99879.47
2023-02-12T13:03:02.034Z,99884.19
2023-02-12T13:06:03.644Z,99894.38
2023-02-12T13:08:58.586Z,99911.00
2023-02-12T13:11:44.643Z,99847.47
2023-02-12T13:14:38.305Z,99893.84
2023-02-12T13:17:16.836Z,99956.38
2023-02-12T13:19:59.254Z,99938.78
2023-02-12T13:22:37.613Z,99936.41
2023-02-12T13:25:24.109Z,99907.16
2023-02-12T13:27:54.784Z,99949.72
2023-02-12T13:30:29.006Z,99939.94
2023-02-12T13:33:09.497Z,99938.91
2023-02-12T13:35:43.820Z,99965.94
2023-02-12T13:38:20.993Z,99943.88
2023-02-12T13:40:56.608Z,99941.34
2023-02-12T13:43:41.508Z,99996.75
2023-02-12T13:46:24.838Z,99969.91
2023-02-12T13:51:48.583Z,99966.28
2023-02-12T13:54:33.820Z,99978.72
2023-02-12T13:57:10.619Z,99999.59
2023-02-12T13:59:45.921Z,99962.22
2023-02-12T14:02:54.285Z,99961.16
2023-02-12T14:05:28.199Z,99975.41
2023-02-12T14:08:04.238Z,99983.19
2023-02-12T14:10:37.361Z,100009.97
2023-02-12T14:13:17.831Z,99998.72
2023-02-12T14:15:51.174Z,100024.13
2023-02-12T14:18:33.173Z,99983.94
2023-02-12T14:21:44.806Z,100024.94
2023-02-12T14:24:52.524Z,100030.63
2023-02-12T14:27:34.136Z,99998.88
2023-02-12T14:30:36.767Z,100046.00
2023-02-12T14:33:26.565Z,100034.63
2023-02-12T14:36:22.391Z,100018.56
2023-02-12T14:39:07.295Z,100021.59
2023-02-12T14:41:44.714Z,100045.47
2023-02-12T14:44:50.894Z,100061.44
2023-02-12T14:47:54.477Z,100047.94
2023-02-12T14:50:51.806Z,100072.16
2023-02-12T14:53:39.453Z,100073.91
2023-02-12T14:56:10.731Z,100073.03
2023-02-12T14:58:40.872Z,100081.22
2023-02-12T15:01:10.308Z,100092.69
2023-02-12T15:03:48.619Z,100074.00
2023-02-12T15:06:21.234Z,100083.16
2023-02-12T15:09:02.214Z,100083.50
2023-02-12T15:11:42.095Z,100067.59
2023-02-12T15:14:18.973Z,100116.28
2023-02-12T15:17:04.419Z,100083.75
2023-02-12T15:22:26.258Z,100113.22
2023-02-12T15:24:55.538Z,100099.72
2023-02-12T15:27:27.025Z,100095.41
2023-02-12T15:29:56.498Z,100149.63
2023-02-12T15:32:29.084Z,100157.19
2023-02-12T15:35:00.434Z,100144.75
2023-02-12T15:37:35.801Z,100148.09
2023-02-12T15:40:08.029Z,100146.69
2023-02-12T15:42:42.589Z,100147.09
2023-02-12T15:45:23.710Z,100133.03
2023-02-12T15:48:08.225Z,100110.75
2023-02-12T15:50:49.709Z,100147.34
2023-02-12T15:53:19.880Z,100153.38
2023-02-12T15:55:51.206Z,100134.03
2023-02-12T15:58:25.043Z,100150.09
2023-02-12T16:00:55.958Z,100155.56
2023-02-12T16:03:29.413Z,100116.28
2023-02-12T16:06:05.523Z,100155.09
2023-02-12T16:08:40.871Z,100149.34
2023-02-12T16:11:15.561Z,100153.84
2023-02-12T16:13:48.225Z,100158.66
2023-02-12T16:16:25.734Z,100149.47
2023-02-12T16:19:09.916Z,100129.22
2023-02-12T16:21:41.466Z,100128.66
2023-02-12T16:24:30.751Z,100159.06
2023-02-12T16:27:02.838Z,100168.75
2023-02-12T16:29:34.318Z,100165.09
2023-02-12T16:32:05.018Z,100167.03
2023-02-12T16:34:40.967Z,100168.00
2023-02-12T16:37:43.123Z,100172.38
2023-02-12T16:40:23.900Z,100144.22
2023-02-12T16:43:07.517Z,100152.56
2023-02-12T16:45:51.372Z,100149.47
2023-02-12T16:48:25.421Z,100169.00
2023-02-12T16:51:05.730Z,100169.00
2023-02-12T16:53:46.653Z,100183.44
2023-02-12T16:56:20.760Z,100184.19
2023-02-12T16:58:54.133Z,100167.25
2023-02-12T17:01:31.106Z,100142.09
2023-02-12T17:04:02.009Z,100182.59
2023-02-12T17:06:38.527Z,100181.81
2023-02-12T17:09:11.586Z,100192.47
2023-02-12T17:11:41.881Z,100135.47
2023-02-12T17:14:17.225Z,100194.38
2023-02-12T17:16:47.788Z,100176.56
2023-02-12T17:19:17.454Z,100183.94
2023-02-12T17:21:51.654Z,100184.59
2023-02-12T17:24:30.784Z,100160.84
2023-02-12T17:27:02.145Z,100134.22
2023-02-12T17:29:32.543Z,100183.66
2023-02-12T17:32:07.000Z,100190.34
2023-02-12T17:34:47.684Z,100148.75
2023-02-12T17:40:00.563Z,100179.13
2023-02-12T17:42:30.465Z,100194.00
2023-02-12T17:44:59.747Z,100194.31
2023-02-12T17:47:29.496Z,100195.78
2023-02-12T17:50:00.107Z,100189.09
2023-02-12T17:52:29.408Z,100196.44
2023-02-12T17:55:00.627Z,100202.25
2023-02-12T17:57:34.996Z,100159.94
2023-02-12T18:00:04.540Z,100161.03
2023-02-12T18:02:40.328Z,100192.78
2023-02-12T18:05:10.556Z,100189.66
2023-02-12T18:07:39.926Z,100201.94
2023-02-12T18:10:12.632Z,100156.84
2023-02-12T18:12:42.250Z,100207.00
2023-02-12T18:15:13.216Z,100193.84
2023-02-12T18:17:44.643Z,100211.44
2023-02-12T18:20:15.119Z,100208.94
2023-02-12T18:22:44.992Z,100221.81
2023-02-12T18:25:17.353Z,100220.16
2023-02-12T18:27:47.416Z,100195.00
2023-02-12T18:30:19.251Z,100208.09
2023-02-12T18:32:48.608Z,100205.66
2023-02-12T18:35:18.899Z,100215.03
2023-02-12T18:37:48.771Z,100215.91
2023-02-12T18:40:20.174Z,100208.75
2023-02-12T18:42:50.197Z,100208.44
2023-02-12T18:45:21.330Z,100187.84
2023-02-12T18:47:53.132Z,100212.22
2023-02-12T18:50:22.496Z,100217.63
2023-02-12T18:52:56.885Z,100212.63
2023-02-12T18:55:42.800Z,100221.06
2023-02-12T18:58:12.069Z,100217.94
2023-02-12T19:00:41.429Z,100219.78
2023-02-12T19:03:10.809Z,100226.34
2023-02-12T19:05:44.924Z,100225.97
2023-02-12T19:08:14.578Z,100207.00
2023-02-12T19:10:48.604Z,100228.09
2023-02-12T19:13:17.892Z,100211.06
2023-02-12T19:15:47.052Z,100218.88
2023-02-12T19:18:16.648Z,100200.91
2023-02-12T19:20:51.874Z,100224.53
2023-02-12T19:23:21.505Z,100218.63
2023-02-12T19:25:52.648Z,100230.25
2023-02-12T19:28:23.422Z,100225.41
2023-02-12T19:30:52.937Z,100240.22
2023-02-12T19:33:22.595Z,100231.84
2023-02-12T19:35:52.077Z,100187.16
2023-02-12T19:38:21.290Z,100229.44
2023-02-12T19:41:11.422Z,100230.63
2023-02-12T19:43:41.450Z,100224.19
2023-02-12T19:48:57.535Z,100238.34
2023-02-12T19:51:32.428Z,100226.66
2023-02-12T19:54:03.760Z,100226.56
2023-02-12T19:56:40.948Z,100235.28
2023-02-12T19:59:10.654Z,100223.28
2023-02-12T20:01:40.086Z,100225.41
2023-02-12T20:04:09.385Z,100227.31
2023-02-12T20:06:39.789Z,100217.25
2023-02-12T20:09:15.436Z,100226.56
2023-02-12T20:11:46.606Z,100213.13
2023-02-12T20:14:16.673Z,100212.13
2023-02-12T20:16:47.231Z,100213.03
2023-02-12T20:19:19.897Z,100197.22
2023-02-12T20:21:54.639Z,100197.31
2023-02-12T20:24:25.964Z,100194.81
2023-02-12T20:26:58.177Z,100199.47
2023-02-12T20:29:28.625Z,100195.00
2023-02-12T20:31:58.094Z,100197.13
2023-02-12T20:34:27.308Z,100191.16
2023-02-12T20:36:56.448Z,100190.72
2023-02-12T20:39:25.600Z,100190.53
2023-02-12T20:41:56.713Z,100183.28
2023-02-12T20:44:31.137Z,100185.69
2023-02-12T20:47:00.367Z,100179.41
2023-02-12T20:49:34.638Z,100185.50
2023-02-12T20:52:09.017Z,100166.19
2023-02-12T20:54:39.078Z,100181.28
2023-02-12T20:57:15.366Z,100179.91
2023-02-12T20:59:44.718Z,100177.56
2023-02-12T21:02:14.196Z,100180.66
2023-02-12T21:04:43.632Z,100183.88
2023-02-12T21:07:12.955Z,100187.25
2023-02-12T21:09:42.273Z,100182.41
2023-02-12T21:12:19.109Z,100183.28
2023-02-12T21:14:48.354Z,100178.34
2023-02-12T21:17:19.742Z,100150.47
2023-02-12T21:19:53.961Z,100180.09
2023-02-12T21:22:28.386Z,100176.06
2023-02-12T21:24:57.641Z,100168.19
2023-02-12T21:27:34.194Z,100168.28
2023-02-12T21:30:03.533Z,100167.91
2023-02-12T21:32:41.169Z,100163.25
2023-02-12T21:35:10.504Z,100155.03
2023-02-12T21:37:39.611Z,100160.44
2023-02-12T21:40:10.237Z,100140.59
2023-02-12T21:42:41.548Z,100157.63
2023-02-12T21:45:11.705Z,100159.19
2023-02-12T21:47:41.021Z,100159.28
2023-02-12T21:50:18.689Z,100154.94
2023-02-12T21:52:48.300Z,100164.13
2023-02-12T21:55:22.514Z,100136.16
2023-02-12T21:57:53.646Z,100159.78
2023-02-12T22:00:23.843Z,100158.41
2023-02-12T22:02:53.048Z,100160.16
2023-02-12T22:05:27.272Z,100143.59
2023-02-12T22:07:56.532Z,100103.06
2023-02-12T22:10:25.714Z,100113.13
2023-02-12T22:12:57.132Z,100153.94
2023-02-12T22:15:26.364Z,100134.00
2023-02-12T22:17:55.477Z,100133.44
2023-02-12T22:23:00.115Z,100107.78
2023-02-12T22:25:29.469Z,100131.31
2023-02-12T22:28:00.799Z,100113.31
2023-02-12T22:30:30.063Z,100128.31
2023-02-12T22:32:59.415Z,100125.41
2023-02-12T22:35:33.648Z,100127.25
2023-02-12T22:38:04.212Z,100136.69
2023-02-12T22:40:33.386Z,100119.88
2023-02-12T22:43:04.436Z,100121.41
2023-02-12T22:45:39.036Z,100121.59
2023-02-12T22:48:08.606Z,100119.66
2023-02-12T22:50:39.987Z,100122.78
2023-02-12T22:53:09.390Z,100111.34
2023-02-12T22:55:38.611Z,100109.88
2023-02-12T22:58:09.828Z,100109.84
2023-02-12T23:00:39.046Z,100108.56
2023-02-12T23:03:08.553Z,100113.78
2023-02-12T23:05:38.557Z,100130.13
2023-02-12T23:08:08.409Z,100134.75
2023-02-12T23:10:37.512Z,100130.69
2023-02-12T23:13:06.868Z,100111.28
2023-02-12T23:15:42.946Z,100141.66
2023-02-12T23:18:17.254Z,100142.97
2023-02-12T23:20:46.465Z,100095.00
2023-02-12T23:23:15.637Z,100132.13
2023-02-12T23:25:45.295Z,100118.88
2023-02-12T23:28:14.744Z,100090.03
2023-02-12T23:30:51.144Z,100128.28
2023-02-12T23:33:21.143Z,100119.00
2023-02-12T23:35:51.337Z,100116.03
2023-02-12T23:38:20.490Z,100108.03
2023-02-12T23:40:49.812Z,100112.66
2023-02-12T23:43:19.428Z,100109.88
2023-02-12T23:45:50.512Z,100081.34
2023-02-12T23:48:19.810Z,100104.09
2023-02-12T23:50:49.983Z,100103.69
2023-02-12T23:53:19.666Z,100087.13
2023-02-12T23:55:51.833Z,100090.75
2023-02-12T23:58:25.983Z,100080.41
